Time;durP1;ratioP1;P1;durP2;ratioP2;P2;SDS_P1;SDS_P2;PMS_P1;PMS_P2;Temp;Humidity;BMP_temperature;BMP_pressure;BME280_temperature;BME280_humidity;BME280_pressure;Samples;Min_cycle;Max_cycle;Signal;HPM_P1;HPM_P2
2022/10/24 00:00:30;;;;;;;24.67;14.93;;;7.50;99.90;;;;;;4195055;28;20040;-62
2022/10/24 00:02:31;;;;;;;25.47;14.97;;;7.50;99.90;;;;;;4197469;28;20070;-61
2022/10/24 00:04:38;;;;;;;24.07;15.23;;;7.40;99.90;;;;;;4190511;28;20070;-63
2022/10/24 00:06:40;;;;;;;27.83;16.23;;;7.30;99.90;;;;;;4195180;28;20078;-63
2022/10/24 00:08:43;;;;;;;32.47;16.90;;;7.30;99.90;;;;;;4193682;28;20040;-64
2022/10/24 00:10:47;;;;;;;28.20;17.00;;;7.30;99.90;;;;;;4195052;28;20074;-63
2022/10/24 00:12:48;;;;;;;26.17;16.40;;;7.30;99.90;;;;;;4205102;28;20381;-64
2022/10/24 00:14:49;;;;;;;34.03;19.83;;;7.40;99.90;;;;;;4211163;28;20036;-64
2022/10/24 00:16:51;;;;;;;24.33;15.77;;;7.40;99.90;;;;;;4208165;28;20102;-62
2022/10/24 00:18:52;;;;;;;27.57;16.20;;;7.30;99.90;;;;;;4195190;28;20098;-63
2022/10/24 00:20:53;;;;;;;26.60;16.07;;;7.20;99.90;;;;;;4210761;28;20089;-64
2022/10/24 00:22:54;;;;;;;31.83;17.77;;;7.20;99.90;;;;;;4210415;28;20480;-63
2022/10/24 00:24:56;;;;;;;26.93;15.60;;;7.10;99.90;;;;;;4210592;28;20032;-64
2022/10/24 00:26:57;;;;;;;27.10;15.23;;;7.10;99.90;;;;;;4210569;28;20667;-62
2022/10/24 00:28:58;;;;;;;25.47;15.90;;;7.00;99.90;;;;;;4209817;28;20097;-64
2022/10/24 00:31:00;;;;;;;27.17;16.30;;;6.90;99.90;;;;;;4194465;28;20431;-63
2022/10/24 00:33:01;;;;;;;26.60;16.30;;;6.80;99.90;;;;;;4207342;28;20081;-64
2022/10/24 00:35:03;;;;;;;28.43;17.07;;;6.70;99.90;;;;;;4207939;28;20040;-62
2022/10/24 00:37:04;;;;;;;26.37;15.87;;;6.80;99.90;;;;;;4211382;28;20036;-63
2022/10/24 00:39:06;;;;;;;28.93;16.03;;;6.70;99.90;;;;;;4194926;28;20048;-62
2022/10/24 00:41:09;;;;;;;28.47;16.67;;;6.80;99.90;;;;;;4194192;28;20040;-64
2022/10/24 00:43:19;;;;;;;26.97;16.30;;;6.80;99.90;;;;;;4192021;28;20505;-65
2022/10/24 00:45:40;;;;;;;30.17;17.80;;;6.80;99.90;;;;;;4181733;28;20095;-64
2022/10/24 00:47:42;;;;;;;25.27;15.93;;;6.90;99.90;;;;;;4184550;28;20052;-64
2022/10/24 00:50:12;;;;;;;31.73;18.47;;;6.90;99.90;;;;;;4209805;28;20533;-64
2022/10/24 00:52:17;;;;;;;27.27;16.90;;;7.00;99.90;;;;;;4210405;28;20073;-63
2022/10/24 00:54:18;;;;;;;27.30;17.83;;;7.00;99.90;;;;;;4203918;28;20078;-63
2022/10/24 00:56:24;;;;;;;25.73;16.13;;;7.00;99.90;;;;;;4177397;28;20131;-65
2022/10/24 00:58:29;;;;;;;27.60;16.03;;;7.00;99.90;;;;;;4185186;28;20021;-64
2022/10/24 01:00:35;;;;;;;25.23;15.53;;;7.10;99.90;;;;;;4192952;28;20082;-64
2022/10/24 01:02:36;;;;;;;26.37;15.70;;;7.20;99.90;;;;;;4177646;28;20440;-64
2022/10/24 01:04:37;;;;;;;27.13;17.53;;;7.20;99.90;;;;;;4170963;28;20050;-63
2022/10/24 01:06:57;;;;;;;27.87;16.33;;;7.20;99.90;;;;;;4177136;28;20037;-65
2022/10/24 01:09:40;;;;;;;25.43;15.53;;;7.20;99.90;;;;;;4171216;28;20478;-63
2022/10/24 01:11:46;;;;;;;31.17;15.90;;;7.20;99.90;;;;;;4136684;28;20092;-63
2022/10/24 01:14:00;;;;;;;24.73;15.70;;;7.10;99.90;;;;;;4159726;28;20103;-62
2022/10/24 01:16:20;;;;;;;25.23;15.63;;;7.10;99.90;;;;;;4131863;28;20064;-63
2022/10/24 01:18:23;;;;;;;25.60;14.55;;;7.20;99.90;;;;;;4174051;28;20090;-62
2022/10/24 01:20:52;;;;;;;25.20;12.83;;;7.20;99.90;;;;;;4180962;28;20033;-63
2022/10/24 01:23:14;;;;;;;27.47;15.83;;;7.20;99.90;;;;;;4180029;28;20033;-62
2022/10/24 01:25:15;;;;;;;22.23;14.73;;;7.30;99.90;;;;;;4179831;28;20526;-62
2022/10/24 01:27:38;;;;;;;25.53;14.23;;;7.30;99.90;;;;;;4163206;28;20099;-62
2022/10/24 01:30:05;;;;;;;25.23;15.67;;;7.30;99.90;;;;;;4171618;28;20045;-62
2022/10/24 01:32:21;;;;;;;22.97;15.43;;;7.30;99.90;;;;;;4168080;28;20535;-62
2022/10/24 01:34:47;;;;;;;25.83;16.20;;;7.30;99.90;;;;;;4165374;28;20045;-63
2022/10/24 01:37:37;;;;;;;27.93;17.43;;;7.30;99.90;;;;;;4169593;28;20037;-64
2022/10/24 01:39:52;;;;;;;25.17;15.77;;;7.30;99.90;;;;;;4177162;28;20063;-62
2022/10/24 01:41:56;;;;;;;30.23;17.87;;;7.20;99.90;;;;;;4181000;28;20477;-63
2022/10/24 01:44:24;;;;;;;27.57;16.53;;;7.20;99.90;;;;;;4179247;28;20041;-64
2022/10/24 01:46:30;;;;;;;29.70;17.27;;;7.30;99.90;;;;;;4180136;28;20626;-63
2022/10/24 01:48:37;;;;;;;26.73;15.57;;;7.30;99.90;;;;;;4178824;28;20049;-63
2022/10/24 01:50:41;;;;;;;25.87;16.20;;;7.40;99.90;;;;;;4178659;28;20044;-64
2022/10/24 01:52:44;;;;;;;25.83;15.77;;;7.30;99.90;;;;;;4179022;28;20041;-62
2022/10/24 01:54:47;;;;;;;30.20;16.60;;;7.30;99.90;;;;;;4161059;28;20034;-63
2022/10/24 01:56:49;;;;;;;28.00;16.73;;;7.20;99.90;;;;;;4177769;28;20029;-62
2022/10/24 01:58:51;;;;;;;27.17;17.20;;;7.20;99.90;;;;;;4177225;28;20037;-63
2022/10/24 02:00:56;;;;;;;26.17;15.33;;;7.10;99.90;;;;;;4165838;28;20038;-63
2022/10/24 02:03:22;;;;;;;26.13;15.83;;;7.00;99.90;;;;;;4180269;28;20029;-64
2022/10/24 02:05:32;;;;;;;28.67;15.67;;;7.00;99.90;;;;;;4204074;28;20055;-64
2022/10/24 02:07:35;;;;;;;24.25;14.60;;;6.90;99.90;;;;;;4190446;28;20032;-65
2022/10/24 02:09:38;;;;;;;23.10;14.63;;;6.90;99.90;;;;;;4197896;28;20040;-65
2022/10/24 02:11:41;;;;;;;21.43;13.80;;;6.80;99.90;;;;;;4196717;28;20032;-63
2022/10/24 02:14:01;;;;;;;22.40;14.63;;;6.80;99.90;;;;;;4195431;28;20037;-64
2022/10/24 02:16:04;;;;;;;32.65;15.60;;;6.80;99.90;;;;;;4196763;28;20362;-66
2022/10/24 02:18:06;;;;;;;23.07;15.73;;;6.70;99.90;;;;;;4196020;28;20461;-64
2022/10/24 02:20:08;;;;;;;29.53;16.40;;;6.60;99.90;;;;;;4197417;28;20094;-65
2022/10/24 02:22:44;;;;;;;29.87;15.23;;;6.60;99.90;;;;;;4195313;28;20582;-62
2022/10/24 02:25:19;;;;;;;25.37;15.90;;;6.70;99.90;;;;;;4196637;28;20025;-64
2022/10/24 02:27:32;;;;;;;25.07;15.70;;;6.70;99.90;;;;;;4205760;28;20044;-65
2022/10/24 02:29:41;;;;;;;25.50;15.37;;;6.70;99.90;;;;;;4212822;28;20157;-63
2022/10/24 02:31:49;;;;;;;31.33;16.10;;;6.70;99.90;;;;;;4212456;28;20077;-63
2022/10/24 02:33:53;;;;;;;25.23;15.47;;;6.70;99.90;;;;;;4207243;28;20082;-63
2022/10/24 02:35:55;;;;;;;28.73;16.47;;;6.70;99.90;;;;;;4195557;28;20087;-63
2022/10/24 02:38:03;;;;;;;30.80;16.77;;;6.70;99.90;;;;;;4196870;28;20029;-64
2022/10/24 02:40:07;;;;;;;27.77;16.37;;;6.70;99.90;;;;;;4204438;28;20024;-64
2022/10/24 02:42:10;;;;;;;27.23;16.63;;;6.70;99.90;;;;;;4193652;28;20036;-64
2022/10/24 02:44:14;;;;;;;27.27;16.13;;;6.70;99.90;;;;;;4178733;28;20398;-64
2022/10/24 02:46:17;;;;;;;28.43;16.13;;;6.70;99.90;;;;;;4179338;28;20037;-64
2022/10/24 02:48:22;;;;;;;26.90;15.33;;;6.70;99.90;;;;;;4178975;28;20041;-63
2022/10/24 02:50:25;;;;;;;31.97;15.97;;;6.70;99.90;;;;;;4195702;28;20024;-64
2022/10/24 02:52:26;;;;;;;26.87;16.27;;;6.60;99.90;;;;;;4211671;28;20466;-62
2022/10/24 02:54:27;;;;;;;29.73;16.43;;;6.70;99.90;;;;;;4208040;28;20070;-64
2022/10/24 02:56:29;;;;;;;28.20;16.37;;;6.70;99.90;;;;;;4205982;28;20542;-64
2022/10/24 02:58:30;;;;;;;32.90;16.80;;;6.70;99.90;;;;;;4194831;28;20097;-64
2022/10/24 03:00:31;;;;;;;33.03;17.50;;;6.80;99.90;;;;;;4212121;28;20020;-64
2022/10/24 03:02:34;;;;;;;29.83;17.70;;;6.80;99.90;;;;;;4177900;28;20444;-64
2022/10/24 03:04:35;;;;;;;28.63;17.07;;;6.90;99.90;;;;;;4180062;28;20083;-63
2022/10/24 03:06:36;;;;;;;29.47;16.27;;;6.90;99.90;;;;;;4181350;28;20509;-65
2022/10/24 03:08:37;;;;;;;34.33;17.83;;;7.00;99.90;;;;;;4183873;28;20044;-63
2022/10/24 03:10:39;;;;;;;30.40;16.80;;;6.90;99.90;;;;;;4178981;28;20037;-63
2022/10/24 03:12:40;;;;;;;28.67;16.03;;;7.00;99.90;;;;;;4179244;28;20041;-64
2022/10/24 03:14:42;;;;;;;27.73;16.40;;;6.90;99.90;;;;;;4184442;28;20032;-64
2022/10/24 03:16:43;;;;;;;28.83;17.00;;;7.00;99.90;;;;;;4178806;28;20045;-65
2022/10/24 03:18:44;;;;;;;32.83;16.53;;;7.00;99.90;;;;;;4184386;28;20028;-63
2022/10/24 03:20:45;;;;;;;28.70;16.30;;;7.10;99.90;;;;;;4194985;28;20505;-64
2022/10/24 03:22:46;;;;;;;28.33;17.80;;;7.10;99.90;;;;;;4195261;28;20044;-63
2022/10/24 03:24:47;;;;;;;31.43;16.47;;;7.20;99.90;;;;;;4193024;28;20048;-64
2022/10/24 03:26:51;;;;;;;23.43;15.40;;;7.20;99.90;;;;;;4195103;28;20081;-62
2022/10/24 03:28:52;;;;;;;27.93;16.23;;;7.20;99.90;;;;;;4192705;28;20045;-64
2022/10/24 03:30:55;;;;;;;31.67;17.70;;;7.20;99.90;;;;;;4180436;28;20033;-62
2022/10/24 03:32:56;;;;;;;30.10;16.00;;;7.20;99.90;;;;;;4178591;28;20571;-64
2022/10/24 03:34:57;;;;;;;27.87;16.07;;;7.20;99.90;;;;;;4180126;28;20041;-64
2022/10/24 03:36:58;;;;;;;24.97;15.47;;;7.20;99.90;;;;;;4177860;28;20033;-64
2022/10/24 03:38:59;;;;;;;25.80;15.33;;;7.30;99.90;;;;;;4183005;28;20080;-65
2022/10/24 03:41:00;;;;;;;25.70;15.77;;;7.20;99.90;;;;;;4185767;28;20439;-64
2022/10/24 03:43:02;;;;;;;26.93;15.13;;;7.30;99.90;;;;;;4186128;28;20435;-64
2022/10/24 03:45:04;;;;;;;29.67;15.90;;;7.30;99.90;;;;;;4184766;28;20462;-64
2022/10/24 03:47:05;;;;;;;23.77;15.20;;;7.30;99.90;;;;;;4180557;28;20037;-64
2022/10/24 03:49:06;;;;;;;25.90;15.33;;;7.30;99.90;;;;;;4186427;28;20078;-65
2022/10/24 03:51:07;;;;;;;25.80;14.93;;;7.30;99.90;;;;;;4189310;28;20029;-65
2022/10/24 03:53:09;;;;;;;22.37;14.43;;;7.30;99.90;;;;;;4177959;28;20078;-63
2022/10/24 03:55:10;;;;;;;26.50;15.33;;;7.30;99.90;;;;;;4178073;28;20024;-64
2022/10/24 03:57:12;;;;;;;26.97;15.30;;;7.20;99.90;;;;;;4178947;28;20045;-64
2022/10/24 03:59:13;;;;;;;25.57;15.37;;;7.20;99.90;;;;;;4183774;28;20045;-63
2022/10/24 04:01:16;;;;;;;23.40;15.30;;;7.20;99.90;;;;;;4189070;28;20053;-64
2022/10/24 04:03:18;;;;;;;23.10;14.53;;;7.20;99.90;;;;;;4210506;28;20028;-64
2022/10/24 04:05:19;;;;;;;25.20;15.43;;;7.20;99.90;;;;;;4203788;28;20069;-62
2022/10/24 04:07:20;;;;;;;29.47;15.70;;;7.20;99.90;;;;;;4209768;28;20040;-63
2022/10/24 04:09:22;;;;;;;27.17;15.63;;;7.30;99.90;;;;;;4199282;28;20090;-63
2022/10/24 04:11:23;;;;;;;27.83;15.47;;;7.30;99.90;;;;;;4176962;28;20053;-62
2022/10/24 04:13:25;;;;;;;24.50;15.40;;;7.30;99.90;;;;;;4178203;28;20173;-67
2022/10/24 04:15:26;;;;;;;25.37;15.63;;;7.40;99.90;;;;;;4178118;28;20075;-63
2022/10/24 04:17:27;;;;;;;25.70;15.67;;;7.40;99.90;;;;;;4177929;28;20037;-63
2022/10/24 04:19:28;;;;;;;27.60;16.30;;;7.40;99.90;;;;;;4176633;28;20033;-66
2022/10/24 04:21:29;;;;;;;28.00;16.20;;;7.40;99.90;;;;;;4177494;28;20106;-64
2022/10/24 04:23:34;;;;;;;29.10;16.47;;;7.40;99.90;;;;;;4178218;28;20021;-63
2022/10/24 04:25:35;;;;;;;28.33;15.73;;;7.40;99.90;;;;;;4178638;28;20480;-62
2022/10/24 04:27:39;;;;;;;29.50;16.57;;;7.30;99.90;;;;;;4177191;28;20102;-64
2022/10/24 04:29:40;;;;;;;28.37;17.50;;;7.40;99.90;;;;;;4177227;28;20079;-65
2022/10/24 04:31:41;;;;;;;27.00;15.60;;;7.50;99.90;;;;;;4187253;28;20041;-65
2022/10/24 04:33:42;;;;;;;28.53;16.40;;;7.50;99.90;;;;;;4192774;28;20106;-63
2022/10/24 04:35:47;;;;;;;31.07;16.53;;;7.60;99.90;;;;;;4193799;28;20052;-64
2022/10/24 04:37:48;;;;;;;29.80;15.93;;;7.60;99.90;;;;;;4179526;28;20029;-65
2022/10/24 04:39:49;;;;;;;28.70;16.87;;;7.60;99.90;;;;;;4178602;28;20063;-64
2022/10/24 04:41:50;;;;;;;28.23;16.07;;;7.60;99.90;;;;;;4177034;28;20096;-64
2022/10/24 04:43:52;;;;;;;26.40;15.43;;;7.60;99.90;;;;;;4178182;28;20028;-64
2022/10/24 04:45:53;;;;;;;29.03;17.20;;;7.60;99.90;;;;;;4176729;28;20124;-64
2022/10/24 04:47:54;;;;;;;33.10;17.97;;;7.70;99.90;;;;;;4187292;28;20060;-63
2022/10/24 04:49:55;;;;;;;35.63;17.87;;;7.70;99.90;;;;;;4193409;28;20017;-64
2022/10/24 04:51:56;;;;;;;30.23;17.20;;;7.70;99.90;;;;;;4198695;28;20048;-64
2022/10/24 04:53:58;;;;;;;31.43;16.70;;;7.70;99.90;;;;;;4197819;28;20507;-64
2022/10/24 04:55:59;;;;;;;34.73;17.90;;;7.70;99.90;;;;;;4198973;28;20820;-64
2022/10/24 04:58:01;;;;;;;32.87;17.90;;;7.80;99.90;;;;;;4185258;28;21556;-64
2022/10/24 05:00:03;;;;;;;33.90;18.57;;;7.80;99.90;;;;;;4182848;28;20515;-62
2022/10/24 05:02:04;;;;;;;41.00;18.83;;;7.80;99.90;;;;;;4195676;28;20045;-64
2022/10/24 05:04:07;;;;;;;33.90;16.87;;;7.80;99.90;;;;;;4165787;28;20045;-67
2022/10/24 05:06:08;;;;;;;36.83;18.50;;;7.70;99.90;;;;;;4165046;28;20375;-64
2022/10/24 05:08:09;;;;;;;35.33;17.93;;;7.80;99.90;;;;;;4171310;28;20369;-64
2022/10/24 05:10:13;;;;;;;35.17;19.80;;;7.80;99.90;;;;;;4196685;28;20632;-63
2022/10/24 05:12:14;;;;;;;36.93;20.40;;;7.80;99.90;;;;;;4197062;28;20052;-65
2022/10/24 05:14:15;;;;;;;38.40;19.70;;;7.80;99.90;;;;;;4199763;28;20036;-65
2022/10/24 05:16:16;;;;;;;43.37;19.93;;;7.80;99.90;;;;;;4198145;28;20040;-64
2022/10/24 05:18:17;;;;;;;68.97;20.47;;;7.80;99.90;;;;;;4199031;28;20090;-64
2022/10/24 05:20:18;;;;;;;177.13;24.87;;;7.80;99.90;;;;;;4198201;28;20090;-63
2022/10/24 05:22:19;;;;;;;124.33;25.47;;;7.70;99.90;;;;;;4199425;28;20082;-64
2022/10/24 05:24:20;;;;;;;52.33;22.10;;;7.60;99.90;;;;;;4197270;28;20032;-63
2022/10/24 05:26:22;;;;;;;58.83;24.07;;;7.50;99.90;;;;;;4198662;28;20017;-64
2022/10/24 05:28:23;;;;;;;76.67;23.20;;;7.60;99.90;;;;;;4197706;28;20029;-64
2022/10/24 05:30:24;;;;;;;92.87;25.30;;;7.60;99.90;;;;;;4198914;28;20024;-64
2022/10/24 05:32:25;;;;;;;55.83;23.80;;;7.60;99.90;;;;;;4198333;28;20131;-64
2022/10/24 05:34:27;;;;;;;73.23;26.10;;;7.70;99.90;;;;;;4198825;28;20028;-65
2022/10/24 05:36:28;;;;;;;86.47;23.27;;;7.70;99.90;;;;;;4199325;28;20040;-66
2022/10/24 05:38:29;;;;;;;108.50;25.33;;;7.70;99.90;;;;;;4198794;28;20036;-64
2022/10/24 05:40:30;;;;;;;51.67;23.77;;;7.70;99.90;;;;;;4200001;28;20419;-65
2022/10/24 05:42:31;;;;;;;63.13;23.50;;;7.70;99.90;;;;;;4198419;28;20036;-64
2022/10/24 05:44:32;;;;;;;54.33;25.23;;;7.80;99.90;;;;;;4199613;28;20074;-64
2022/10/24 05:46:33;;;;;;;53.30;22.83;;;7.80;99.90;;;;;;4198099;28;20044;-64
2022/10/24 05:48:35;;;;;;;74.97;23.73;;;7.80;99.90;;;;;;4199089;28;20032;-64
2022/10/24 05:50:36;;;;;;;74.10;25.03;;;7.80;99.90;;;;;;4198019;28;20074;-63
2022/10/24 05:52:38;;;;;;;70.27;25.70;;;7.80;99.90;;;;;;4199306;28;20090;-64
2022/10/24 05:54:39;;;;;;;64.60;24.53;;;7.90;99.90;;;;;;4198251;28;20028;-65
2022/10/24 05:56:41;;;;;;;108.10;25.33;;;7.80;99.90;;;;;;4197252;28;20048;-65
2022/10/24 05:58:42;;;;;;;59.90;25.43;;;7.90;99.90;;;;;;4197352;28;20514;-64
2022/10/24 06:00:43;;;;;;;81.93;23.37;;;7.80;99.90;;;;;;4199913;28;20461;-66
2022/10/24 06:02:45;;;;;;;61.23;27.27;;;7.80;99.90;;;;;;4212935;28;20069;-64
2022/10/24 06:04:48;;;;;;;57.77;23.93;;;7.80;99.90;;;;;;4211477;28;20059;-64
2022/10/24 06:06:50;;;;;;;59.80;24.27;;;7.90;99.90;;;;;;4212508;28;20085;-65
2022/10/24 06:08:51;;;;;;;73.07;24.77;;;7.90;99.90;;;;;;4211653;28;20043;-65
2022/10/24 06:10:52;;;;;;;94.83;26.30;;;8.00;99.90;;;;;;4195186;28;20114;-64
2022/10/24 06:12:53;;;;;;;73.17;27.20;;;7.90;99.90;;;;;;4212064;28;20032;-64
2022/10/24 06:14:56;;;;;;;69.03;26.33;;;7.90;99.90;;;;;;4213121;28;20036;-64
2022/10/24 06:16:57;;;;;;;72.87;25.53;;;7.90;99.90;;;;;;4212231;28;20029;-65
2022/10/24 06:18:58;;;;;;;74.83;30.80;;;7.90;99.90;;;;;;4213306;28;20561;-63
2022/10/24 06:21:01;;;;;;;75.13;28.00;;;7.90;99.90;;;;;;4212064;28;20027;-64
2022/10/24 06:23:02;;;;;;;76.67;26.33;;;7.90;99.90;;;;;;4213171;28;20016;-64
2022/10/24 06:25:04;;;;;;;71.80;27.40;;;8.00;99.90;;;;;;4211336;28;20442;-65
2022/10/24 06:27:05;;;;;;;79.20;28.27;;;8.00;99.90;;;;;;4213037;28;20023;-66
2022/10/24 06:29:06;;;;;;;72.90;28.17;;;8.00;99.90;;;;;;4212014;28;20074;-66
2022/10/24 06:31:10;;;;;;;78.27;29.83;;;8.10;99.90;;;;;;4212727;28;20081;-64
2022/10/24 06:33:11;;;;;;;76.80;29.77;;;8.20;99.90;;;;;;4211252;28;20545;-65
2022/10/24 06:35:14;;;;;;;68.67;26.37;;;8.30;99.90;;;;;;4211697;28;20039;-66
2022/10/24 06:37:15;;;;;;;80.87;28.93;;;8.30;99.90;;;;;;4212404;28;20016;-65
2022/10/24 06:39:16;;;;;;;84.40;26.53;;;8.30;99.90;;;;;;4212255;28;20476;-64
2022/10/24 06:41:18;;;;;;;89.30;30.33;;;8.30;99.90;;;;;;4212271;28;20089;-64
2022/10/24 06:43:19;;;;;;;70.17;28.70;;;8.20;99.90;;;;;;4211605;28;20483;-65
2022/10/24 06:45:22;;;;;;;88.97;31.40;;;8.30;99.90;;;;;;4194494;28;20130;-65
2022/10/24 06:47:23;;;;;;;85.73;30.83;;;8.30;99.90;;;;;;4211820;28;20407;-64
2022/10/24 06:49:25;;;;;;;106.63;31.37;;;8.30;99.90;;;;;;4212724;28;20093;-64
2022/10/24 06:51:26;;;;;;;109.80;32.27;;;8.30;99.90;;;;;;4211506;28;20024;-65
2022/10/24 06:53:27;;;;;;;100.43;29.60;;;8.40;99.90;;;;;;4212101;28;20032;-64
2022/10/24 06:55:28;;;;;;;110.60;33.83;;;8.40;99.90;;;;;;4211816;28;20024;-64
2022/10/24 06:57:30;;;;;;;117.93;36.77;;;8.30;99.90;;;;;;4212569;28;20027;-66
2022/10/24 06:59:31;;;;;;;87.00;32.23;;;8.30;99.90;;;;;;4211400;28;21118;-65
2022/10/24 07:01:34;;;;;;;85.33;31.37;;;8.30;99.90;;;;;;4211432;28;20040;-66
2022/10/24 07:03:35;;;;;;;92.37;31.93;;;8.40;99.90;;;;;;4211838;28;20414;-65
2022/10/24 07:05:36;;;;;;;99.93;35.13;;;8.50;99.90;;;;;;4211427;28;20078;-65
2022/10/24 07:07:40;;;;;;;85.23;34.00;;;8.50;99.90;;;;;;4211329;28;20105;-65
2022/10/24 07:09:41;;;;;;;117.47;35.27;;;8.50;99.90;;;;;;4211305;28;20044;-64
2022/10/24 07:11:43;;;;;;;106.37;35.63;;;8.60;99.90;;;;;;4212447;28;20027;-66
2022/10/24 07:13:44;;;;;;;99.50;40.60;;;8.60;99.90;;;;;;4211167;28;20041;-66
2022/10/24 07:15:45;;;;;;;110.07;41.20;;;8.60;99.90;;;;;;4211749;28;20088;-68
2022/10/24 07:17:47;;;;;;;100.20;41.57;;;8.70;99.90;;;;;;4210137;28;20394;-64
2022/10/24 07:19:52;;;;;;;122.57;35.77;;;8.70;99.90;;;;;;4212336;28;20081;-64
2022/10/24 07:21:53;;;;;;;90.70;27.17;;;8.70;99.90;;;;;;4210210;28;20044;-64
2022/10/24 07:23:55;;;;;;;105.00;39.53;;;8.70;99.90;;;;;;4212308;28;20040;-64
2022/10/24 07:26:09;;;;;;;87.53;38.13;;;8.70;99.90;;;;;;4211156;28;20036;-65
2022/10/24 07:28:11;;;;;;;73.57;34.87;;;8.80;99.90;;;;;;4211396;28;20097;-66
2022/10/24 07:30:17;;;;;;;81.67;36.90;;;8.90;99.90;;;;;;4210135;28;20113;-65
2022/10/24 07:32:18;;;;;;;67.27;27.50;;;9.00;99.90;;;;;;4211767;28;20085;-64
2022/10/24 07:34:19;;;;;;;101.87;21.53;;;9.10;99.90;;;;;;4210196;28;20393;-65
2022/10/24 07:36:23;;;;;;;48.07;21.23;;;9.00;99.90;;;;;;4211455;28;20036;-64
2022/10/24 07:38:25;;;;;;;67.80;24.10;;;9.00;99.90;;;;;;4210443;28;20492;-64
2022/10/24 07:40:26;;;;;;;66.93;23.57;;;8.90;99.90;;;;;;4211438;28;20040;-63
2022/10/24 07:42:27;;;;;;;59.87;25.57;;;9.00;99.90;;;;;;4210286;28;20036;-65
2022/10/24 07:44:29;;;;;;;61.60;24.00;;;9.00;99.90;;;;;;4211033;28;20109;-64
2022/10/24 07:46:30;;;;;;;49.00;22.97;;;9.00;99.90;;;;;;4210776;28;20040;-64
2022/10/24 07:48:32;;;;;;;55.33;25.17;;;9.10;99.90;;;;;;4210805;28;20085;-62
2022/10/24 07:50:34;;;;;;;132.50;27.87;;;9.10;99.90;;;;;;4211635;28;20484;-65
2022/10/24 07:52:35;;;;;;;61.77;24.33;;;9.00;99.90;;;;;;4210594;28;20028;-65
2022/10/24 07:54:36;;;;;;;51.63;21.23;;;9.10;99.90;;;;;;4210962;28;20086;-64
2022/10/24 07:56:37;;;;;;;62.07;22.77;;;9.00;99.90;;;;;;4210428;28;20027;-64
2022/10/24 07:58:38;;;;;;;53.87;21.27;;;9.00;99.90;;;;;;4210680;28;20032;-64
2022/10/24 08:00:40;;;;;;;43.50;23.23;;;9.00;99.90;;;;;;4209506;28;20553;-64
2022/10/24 08:02:41;;;;;;;49.67;23.50;;;9.00;99.90;;;;;;4211083;28;20549;-63
2022/10/24 08:04:43;;;;;;;54.53;24.13;;;9.10;99.90;;;;;;4210129;28;20020;-64
2022/10/24 08:06:44;;;;;;;51.00;23.63;;;9.10;99.90;;;;;;4211663;28;20077;-63
2022/10/24 08:08:45;;;;;;;49.80;24.10;;;9.20;99.90;;;;;;4209661;28;20051;-65
2022/10/24 08:10:47;;;;;;;46.50;23.50;;;9.20;99.90;;;;;;4210816;28;20062;-64
2022/10/24 08:12:48;;;;;;;39.50;21.00;;;9.40;99.90;;;;;;4210031;28;20094;-64
2022/10/24 08:14:51;;;;;;;41.10;21.73;;;9.40;99.90;;;;;;4210274;28;20040;-64
2022/10/24 08:16:52;;;;;;;39.77;19.33;;;9.40;99.90;;;;;;4210453;28;20065;-63
2022/10/24 08:18:55;;;;;;;35.20;19.40;;;9.40;99.90;;;;;;4210566;28;20542;-64
2022/10/24 08:21:04;;;;;;;38.73;20.30;;;9.30;99.90;;;;;;4210644;28;20853;-63
2022/10/24 08:23:05;;;;;;;40.93;19.20;;;9.30;99.90;;;;;;4210002;28;20032;-65
2022/10/24 08:25:08;;;;;;;36.57;17.93;;;9.30;99.90;;;;;;4210648;28;20450;-66
2022/10/24 08:27:10;;;;;;;33.90;18.27;;;9.30;99.90;;;;;;4209410;28;20097;-63
2022/10/24 08:29:13;;;;;;;33.80;18.40;;;9.40;99.90;;;;;;4210657;28;20044;-65
2022/10/24 08:31:18;;;;;;;37.27;18.67;;;9.40;99.90;;;;;;4209461;28;20036;-63
2022/10/24 08:33:19;;;;;;;33.27;17.93;;;9.40;99.90;;;;;;4210604;28;20443;-63
2022/10/24 08:35:20;;;;;;;32.40;18.33;;;9.50;99.90;;;;;;4209974;28;20372;-65
2022/10/24 08:37:21;;;;;;;33.67;19.57;;;9.50;99.90;;;;;;4211384;28;20085;-63
2022/10/24 08:39:23;;;;;;;33.93;19.23;;;9.50;99.90;;;;;;4209487;28;20510;-63
2022/10/24 08:41:37;;;;;;;28.30;16.97;;;9.60;99.90;;;;;;4210821;28;20101;-64
2022/10/24 08:43:38;;;;;;;30.87;17.13;;;9.70;99.90;;;;;;4209972;28;20105;-64
2022/10/24 08:45:58;;;;;;;29.10;16.87;;;9.70;99.90;;;;;;4210455;28;20048;-64
2022/10/24 08:48:10;;;;;;;29.60;15.73;;;9.80;99.90;;;;;;4191117;28;20032;-65
2022/10/24 08:50:26;;;;;;;37.97;21.37;;;9.90;99.90;;;;;;4210321;28;20052;-64
2022/10/24 08:52:32;;;;;;;37.13;20.40;;;10.00;99.90;;;;;;4209774;28;20086;-64
2022/10/24 08:54:40;;;;;;;32.77;18.40;;;10.00;99.90;;;;;;4211103;28;20464;-65
2022/10/24 08:56:41;;;;;;;33.97;18.27;;;10.00;99.90;;;;;;4209761;28;20361;-64
2022/10/24 08:58:45;;;;;;;31.13;16.40;;;10.10;99.90;;;;;;4210713;28;20400;-63
2022/10/24 09:00:48;;;;;;;27.90;16.50;;;10.10;99.90;;;;;;4209012;28;20040;-63
2022/10/24 09:03:08;;;;;;;28.20;15.90;;;10.20;99.90;;;;;;4209874;28;20507;-66
2022/10/24 09:05:15;;;;;;;27.90;16.17;;;10.20;99.90;;;;;;4209939;28;20020;-64
2022/10/24 09:07:19;;;;;;;39.10;20.90;;;10.20;99.90;;;;;;4210900;28;20095;-63
2022/10/24 09:09:28;;;;;;;41.70;22.50;;;10.30;99.90;;;;;;4209192;28;20109;-64
2022/10/24 09:11:36;;;;;;;40.50;19.00;;;10.30;99.90;;;;;;4193314;28;20067;-64
2022/10/24 09:13:37;;;;;;;52.27;23.70;;;10.40;99.90;;;;;;4191156;28;20071;-65
2022/10/24 09:15:41;;;;;;;30.27;18.07;;;10.40;99.90;;;;;;4210629;28;20046;-65
2022/10/24 09:17:43;;;;;;;24.00;13.83;;;10.40;99.90;;;;;;4209034;28;20032;-63
2022/10/24 09:19:57;;;;;;;21.97;13.20;;;10.30;99.90;;;;;;4210501;28;20365;-64
2022/10/24 09:22:00;;;;;;;24.07;13.33;;;10.30;99.90;;;;;;4209709;28;20081;-63
2022/10/24 09:24:01;;;;;;;21.10;13.50;;;10.20;99.90;;;;;;4208777;28;20032;-65
2022/10/24 09:26:05;;;;;;;17.77;11.77;;;10.20;99.90;;;;;;4209503;28;20397;-64
2022/10/24 09:28:07;;;;;;;21.17;12.67;;;10.20;99.90;;;;;;4209806;28;20020;-64
2022/10/24 09:30:17;;;;;;;23.53;15.07;;;10.20;99.90;;;;;;4209647;28;20048;-63
2022/10/24 09:32:22;;;;;;;22.80;12.48;;;10.30;99.90;;;;;;4209598;28;20442;-65
2022/10/24 09:34:23;;;;;;;20.80;13.10;;;10.40;99.90;;;;;;4210264;28;20082;-64
2022/10/24 09:36:28;;;;;;;19.73;11.90;;;10.40;99.90;;;;;;4208808;28;20044;-64
2022/10/24 09:38:32;;;;;;;21.87;14.30;;;10.40;99.90;;;;;;4212112;28;20246;-64
2022/10/24 09:40:34;;;;;;;19.37;12.27;;;10.40;99.90;;;;;;4212655;28;20043;-65
2022/10/24 09:42:37;;;;;;;17.63;11.37;;;10.50;99.90;;;;;;4214041;28;20035;-64
2022/10/24 09:44:40;;;;;;;19.50;12.27;;;10.50;99.90;;;;;;4211946;28;20881;-62
2022/10/24 09:46:44;;;;;;;23.87;13.27;;;10.60;99.90;;;;;;4214093;28;20084;-63
2022/10/24 09:49:02;;;;;;;19.33;11.13;;;10.60;99.90;;;;;;4211733;28;20032;-66
2022/10/24 09:51:06;;;;;;;18.53;11.80;;;10.70;99.90;;;;;;4213232;28;20040;-64
2022/10/24 09:53:29;;;;;;;15.67;10.93;;;10.70;99.90;;;;;;4211782;28;20097;-63
2022/10/24 09:55:31;;;;;;;16.83;11.17;;;10.70;99.90;;;;;;4212689;28;20082;-64
2022/10/24 09:57:39;;;;;;;16.67;11.07;;;10.90;99.90;;;;;;4212434;28;20020;-66
2022/10/24 09:59:42;;;;;;;18.57;11.87;;;11.10;99.90;;;;;;4213125;28;20380;-64
2022/10/24 10:01:44;;;;;;;16.90;11.20;;;11.10;99.90;;;;;;4211589;28;20048;-66
2022/10/24 10:04:04;;;;;;;16.90;10.80;;;11.20;99.90;;;;;;4213326;28;20052;-64
2022/10/24 10:06:19;;;;;;;15.10;10.07;;;11.30;99.90;;;;;;4211871;28;20427;-64
2022/10/24 10:08:22;;;;;;;16.47;11.10;;;11.30;99.90;;;;;;4213037;28;20065;-64
2022/10/24 10:10:30;;;;;;;16.40;11.03;;;11.30;99.90;;;;;;4211766;28;20044;-65
2022/10/24 10:12:35;;;;;;;16.63;11.07;;;11.40;99.90;;;;;;4212616;28;20447;-64
2022/10/24 10:14:40;;;;;;;16.80;11.77;;;11.40;99.90;;;;;;4212145;28;20020;-64
2022/10/24 10:16:41;;;;;;;16.53;11.27;;;11.50;99.90;;;;;;4212968;28;20066;-64
2022/10/24 10:18:47;;;;;;;16.70;11.07;;;11.50;99.90;;;;;;4211238;28;20073;-65
2022/10/24 10:21:19;;;;;;;16.33;10.27;;;11.60;99.90;;;;;;4213222;28;20081;-64
2022/10/24 10:23:24;;;;;;;20.17;10.03;;;11.60;99.90;;;;;;4191299;28;20053;-63
2022/10/24 10:25:30;;;;;;;13.93;10.57;;;11.70;99.90;;;;;;4212169;28;20043;-64
2022/10/24 10:27:38;;;;;;;17.40;11.57;;;11.70;99.90;;;;;;4210519;28;20039;-65
2022/10/24 10:29:39;;;;;;;16.70;11.20;;;11.70;99.90;;;;;;4212901;28;20040;-63
2022/10/24 10:31:49;;;;;;;18.07;11.00;;;11.70;99.90;;;;;;4192972;28;20036;-64
2022/10/24 10:34:09;;;;;;;17.38;11.18;;;11.70;99.90;;;;;;4211652;28;20490;-65
2022/10/24 10:36:18;;;;;;;15.98;10.63;;;11.80;99.90;;;;;;4210966;28;20032;-63
2022/10/24 10:38:41;;;;;;;15.50;10.60;;;11.90;99.90;;;;;;4212226;28;20036;-64